createdAt,value
2019-02-27T00:00:26.068Z,101503.90
2019-02-27T00:02:53.777Z,101504.13
2019-02-27T00:05:20.332Z,101501.82
2019-02-27T00:07:46.489Z,101500.37
2019-02-27T00:10:13.050Z,101498.11
2019-02-27T00:12:39.623Z,101500.03
2019-02-27T00:15:07.173Z,101494.16
2019-02-27T00:17:33.723Z,101496.85
2019-02-27T00:20:04.108Z,101496.26
2019-02-27T00:22:27.972Z,101493.86
2019-02-27T00:24:54.146Z,101487.08
2019-02-27T00:27:21.218Z,101488.50
2019-02-27T00:29:47.449Z,101487.45
2019-02-27T00:32:15.779Z,101482.73
2019-02-27T00:34:41.681Z,101481.59
2019-02-27T00:37:07.894Z,101483.69
2019-02-27T00:39:34.042Z,101484.30
2019-02-27T00:42:00.589Z,101486.41
2019-02-27T00:44:26.720Z,101486.23
2019-02-27T00:46:53.244Z,101474.23
2019-02-27T00:49:19.411Z,101474.73
2019-02-27T00:51:45.592Z,101475.02
2019-02-27T00:54:11.749Z,101473.25
2019-02-27T00:56:37.973Z,101469.44
2019-02-27T00:59:04.195Z,101464.86
2019-02-27T01:01:30.421Z,101465.72
2019-02-27T01:03:59.229Z,101461.44
2019-02-27T01:06:24.647Z,101461.51
2019-02-27T01:08:50.812Z,101464.17
2019-02-27T01:11:18.506Z,101465.92
2019-02-27T01:13:45.066Z,101465.83
2019-02-27T01:16:11.230Z,101464.37
2019-02-27T01:18:37.727Z,101460.84
2019-02-27T01:21:03.914Z,101457.49
2019-02-27T01:23:30.090Z,101456.17
2019-02-27T01:25:57.099Z,101460.59
2019-02-27T01:28:23.425Z,101463.86
2019-02-27T01:30:49.580Z,101462.05
2019-02-27T01:33:15.750Z,101456.05
2019-02-27T01:35:41.910Z,101452.14
2019-02-27T01:38:08.077Z,101455.20
2019-02-27T01:40:34.259Z,101458.03
2019-02-27T01:43:03.105Z,101452.00
2019-02-27T01:45:28.510Z,101442.83
2019-02-27T01:47:54.708Z,101440.08
2019-02-27T01:50:32.854Z,101436.38
2019-02-27T01:52:59.015Z,101430.44
2019-02-27T01:55:25.315Z,101422.40
2019-02-27T01:57:51.481Z,101431.89
2019-02-27T02:00:17.812Z,101427.80
2019-02-27T02:02:44.002Z,101426.36
2019-02-27T02:05:10.349Z,101438.31
2019-02-27T02:07:39.925Z,101436.13
2019-02-27T02:10:08.691Z,101435.96
2019-02-27T02:12:34.861Z,101424.95
2019-02-27T02:15:06.721Z,101432.00
2019-02-27T02:18:14.795Z,101431.36
2019-02-27T02:21:09.073Z,101429.80
2019-02-27T02:24:06.877Z,101426.31
2019-02-27T02:26:47.102Z,101426.41
2019-02-27T02:29:53.146Z,101429.08
2019-02-27T02:32:52.002Z,101419.39
2019-02-27T02:35:25.425Z,101419.67
2019-02-27T02:38:13.712Z,101421.98
2019-02-27T02:41:09.433Z,101418.55
2019-02-27T02:44:13.937Z,101418.41
2019-02-27T02:47:08.495Z,101411.34
2019-02-27T02:49:46.367Z,101409.67
2019-02-27T02:52:33.301Z,101407.25
2019-02-27T02:55:14.295Z,101398.70
2019-02-27T02:58:11.554Z,101400.27
2019-02-27T03:01:04.058Z,101395.86
2019-02-27T03:04:02.992Z,101393.74
2019-02-27T03:07:10.918Z,101383.09
2019-02-27T03:10:08.099Z,101381.05
2019-02-27T03:12:58.646Z,101380.46
2019-02-27T03:15:35.993Z,101379.65
2019-02-27T03:18:29.199Z,101382.02
2019-02-27T03:21:11.656Z,101377.52
2019-02-27T03:23:55.283Z,101376.77
2019-02-27T03:26:51.867Z,101372.32
2019-02-27T03:29:36.649Z,101362.05
2019-02-27T03:32:20.137Z,101361.69
2019-02-27T03:34:54.883Z,101361.17
2019-02-27T03:37:32.147Z,101359.75
2019-02-27T03:40:32.333Z,101360.44
2019-02-27T03:43:30.818Z,101366.13
2019-02-27T03:46:15.009Z,101369.34
2019-02-27T03:49:13.977Z,101362.67
2019-02-27T03:52:00.696Z,101360.09
2019-02-27T03:54:58.250Z,101364.27
2019-02-27T03:57:45.293Z,101356.64
2019-02-27T04:00:33.449Z,101355.55
2019-02-27T04:03:18.331Z,101354.43
2019-02-27T04:05:51.468Z,101359.53
2019-02-27T04:08:48.347Z,101354.92
2019-02-27T04:11:14.575Z,101360.19
2019-02-27T04:13:40.816Z,101357.14
2019-02-27T04:16:07.230Z,101353.41
2019-02-27T04:18:33.065Z,101348.84
2019-02-27T04:20:59.625Z,101346.66
2019-02-27T04:23:25.773Z,101349.97
2019-02-27T04:25:52.204Z,101348.27
2019-02-27T04:28:18.697Z,101355.41
2019-02-27T04:30:44.867Z,101358.77
2019-02-27T04:33:11.047Z,101363.05
2019-02-27T04:35:39.601Z,101368.26
2019-02-27T04:38:05.355Z,101370.70
2019-02-27T04:40:31.541Z,101371.20
2019-02-27T04:42:59.378Z,101371.39
2019-02-27T04:45:26.041Z,101372.50
2019-02-27T04:47:52.231Z,101372.75
2019-02-27T04:50:18.401Z,101372.47
2019-02-27T04:52:44.578Z,101376.84
2019-02-27T04:55:13.121Z,101375.98
2019-02-27T04:57:38.839Z,101379.20
2019-02-27T05:00:09.202Z,101373.69
2019-02-27T05:02:35.380Z,101372.97
2019-02-27T05:05:01.670Z,101374.62
2019-02-27T05:07:29.754Z,101371.09
2019-02-27T05:09:55.960Z,101374.64
2019-02-27T05:12:22.114Z,101373.89
2019-02-27T05:14:48.285Z,101373.21
2019-02-27T05:17:14.478Z,101370.58
2019-02-27T05:19:40.626Z,101368.91
2019-02-27T05:22:07.428Z,101373.27
2019-02-27T05:24:33.587Z,101375.78
2019-02-27T05:27:00.699Z,101375.16
2019-02-27T05:29:27.536Z,101376.00
2019-02-27T05:31:54.003Z,101376.81
2019-02-27T05:34:20.263Z,101377.74
2019-02-27T05:36:46.503Z,101382.55
2019-02-27T05:39:14.977Z,101381.04
2019-02-27T05:41:40.740Z,101380.91
2019-02-27T05:44:07.264Z,101385.27
2019-02-27T05:46:35.726Z,101381.19
2019-02-27T05:49:01.549Z,101381.00
2019-02-27T05:51:27.731Z,101378.25
2019-02-27T05:53:56.169Z,101377.09
2019-02-27T05:56:21.963Z,101376.48
2019-02-27T05:58:48.143Z,101375.52
2019-02-27T06:01:14.286Z,101377.64
2019-02-27T06:03:41.282Z,101377.84
2019-02-27T06:06:11.553Z,101374.48
2019-02-27T06:08:37.991Z,101378.59
2019-02-27T06:11:03.710Z,101375.95
2019-02-27T06:13:29.944Z,101374.46
2019-02-27T06:15:56.113Z,101371.44
2019-02-27T06:18:23.366Z,101363.32
2019-02-27T06:20:49.850Z,101367.19
2019-02-27T06:23:16.040Z,101363.88
2019-02-27T06:25:44.125Z,101364.39
2019-02-27T06:28:10.293Z,101361.45
2019-02-27T06:30:36.454Z,101356.30
2019-02-27T06:33:03.191Z,101349.31
2019-02-27T06:35:33.495Z,101346.06
2019-02-27T06:37:57.520Z,101343.93
2019-02-27T06:40:23.700Z,101336.31
2019-02-27T06:42:53.409Z,101334.52
2019-02-27T06:45:17.949Z,101338.53
2019-02-27T06:47:44.115Z,101333.31
2019-02-27T06:50:14.154Z,101337.47
2019-02-27T06:52:42.469Z,101329.28
2019-02-27T06:55:13.250Z,101329.38
2019-02-27T06:57:41.278Z,101329.03
2019-02-27T07:00:12.734Z,101322.32
2019-02-27T07:02:38.900Z,101327.76
2019-02-27T07:05:07.992Z,101324.67
2019-02-27T07:07:35.151Z,101313.23
2019-02-27T07:10:01.310Z,101316.40
2019-02-27T07:12:27.469Z,101304.64
2019-02-27T07:14:53.790Z,101303.69
2019-02-27T07:17:19.970Z,101305.95
2019-02-27T07:19:47.370Z,101305.98
2019-02-27T07:22:14.232Z,101298.17
2019-02-27T07:24:40.431Z,101298.06
2019-02-27T07:27:06.651Z,101299.14
2019-02-27T07:29:32.822Z,101303.45
2019-02-27T07:31:58.975Z,101301.14
2019-02-27T07:34:25.157Z,101305.30
2019-02-27T07:36:51.318Z,101301.31
2019-02-27T07:39:17.481Z,101296.44
2019-02-27T07:41:43.634Z,101298.96
2019-02-27T07:44:09.806Z,101296.59
2019-02-27T07:46:35.973Z,101287.05
2019-02-27T07:49:03.233Z,101291.27
2019-02-27T07:51:29.372Z,101281.75
2019-02-27T07:53:55.547Z,101278.55
2019-02-27T07:56:21.731Z,101277.91
2019-02-27T07:58:47.898Z,101272.33
2019-02-27T08:01:14.078Z,101272.75
2019-02-27T08:03:44.771Z,101277.89
2019-02-27T08:06:08.292Z,101275.06
2019-02-27T08:08:34.476Z,101269.11
2019-02-27T08:11:00.718Z,101264.08
2019-02-27T08:13:27.020Z,101264.69
2019-02-27T08:15:54.938Z,101263.72
2019-02-27T08:18:29.738Z,101263.71
2019-02-27T08:20:49.204Z,101256.27
2019-02-27T08:23:15.663Z,101255.03
2019-02-27T08:25:41.930Z,101249.16
2019-02-27T08:28:08.069Z,101253.73
2019-02-27T08:30:34.647Z,101251.98
2019-02-27T08:33:00.759Z,101248.89
2019-02-27T08:35:26.940Z,101250.27
2019-02-27T08:38:01.893Z,101251.53
2019-02-27T08:40:24.433Z,101249.52
2019-02-27T08:42:49.240Z,101246.55
2019-02-27T08:45:20.249Z,101242.15
2019-02-27T08:47:45.489Z,101241.37
2019-02-27T08:50:22.731Z,101238.14
2019-02-27T08:55:20.034Z,101224.84
2019-02-27T08:57:46.251Z,101223.42
2019-02-27T09:00:26.711Z,101218.74
2019-02-27T09:02:53.083Z,101215.66
2019-02-27T09:05:21.123Z,101205.72
2019-02-27T09:07:47.326Z,101205.25
2019-02-27T09:10:16.090Z,101193.82
2019-02-27T09:12:45.450Z,101198.33
2019-02-27T09:15:12.601Z,101192.42
2019-02-27T09:17:38.759Z,101189.47
2019-02-27T09:20:09.550Z,101189.34
2019-02-27T09:22:36.800Z,101190.70
2019-02-27T09:25:05.470Z,101177.75
2019-02-27T09:27:32.956Z,101174.41
2019-02-27T09:29:59.706Z,101174.10
2019-02-27T09:32:25.871Z,101171.96
2019-02-27T09:34:52.136Z,101175.78
2019-02-27T09:37:18.285Z,101171.22
2019-02-27T09:39:44.488Z,101162.84
2019-02-27T09:42:10.738Z,101155.78
2019-02-27T09:44:37.276Z,101158.73
2019-02-27T09:47:03.637Z,101156.01
2019-02-27T09:49:29.803Z,101151.42
2019-02-27T09:51:56.435Z,101143.34
2019-02-27T09:54:23.886Z,101138.49
2019-02-27T09:56:50.123Z,101137.18
2019-02-27T09:59:16.781Z,101130.63
2019-02-27T10:01:44.372Z,101126.65
2019-02-27T10:04:10.542Z,101125.80
2019-02-27T10:06:36.735Z,101127.80
2019-02-27T10:09:04.203Z,101124.94
2019-02-27T10:11:32.942Z,101122.98
2019-02-27T10:13:59.092Z,101120.44
2019-02-27T10:16:25.289Z,101122.16
2019-02-27T10:18:54.787Z,101119.61
2019-02-27T10:21:19.489Z,101120.30
2019-02-27T10:23:45.653Z,101111.06
2019-02-27T10:26:11.809Z,101112.68
2019-02-27T10:28:39.653Z,101110.23
2019-02-27T10:31:06.014Z,101106.59
2019-02-27T10:33:32.169Z,101108.16
2019-02-27T10:36:03.036Z,101095.72
2019-02-27T10:38:26.835Z,101092.38
2019-02-27T10:40:53.250Z,101093.22
2019-02-27T10:43:21.084Z,101085.86
2019-02-27T10:45:49.295Z,101080.64
2019-02-27T10:48:15.468Z,101080.65
2019-02-27T10:50:41.657Z,101072.57
2019-02-27T10:53:07.820Z,101068.87
2019-02-27T10:55:34.006Z,101062.69
2019-02-27T10:58:00.142Z,101050.72
2019-02-27T11:00:31.834Z,101050.37
2019-02-27T11:02:59.363Z,101052.46
2019-02-27T11:05:36.198Z,101050.05
2019-02-27T11:08:02.462Z,101039.23
2019-02-27T11:10:28.599Z,101028.81
2019-02-27T11:12:54.879Z,101033.41
2019-02-27T11:15:21.724Z,101028.46
2019-02-27T11:17:48.010Z,101018.55
2019-02-27T11:20:14.529Z,101010.98
2019-02-27T11:22:40.820Z,101007.27
2019-02-27T11:25:23.187Z,101001.51
2019-02-27T11:27:49.521Z,101004.45
2019-02-27T11:30:36.737Z,100996.77
2019-02-27T11:33:03.071Z,100991.35
2019-02-27T11:35:29.242Z,100984.14
2019-02-27T11:37:57.361Z,100978.16
2019-02-27T11:40:25.740Z,100969.36
2019-02-27T11:42:51.899Z,100963.35
2019-02-27T11:45:18.241Z,100960.64
2019-02-27T11:47:47.729Z,100953.44
2019-02-27T11:50:17.850Z,100956.00
2019-02-27T11:52:48.836Z,100952.20
2019-02-27T11:55:20.167Z,100949.47
2019-02-27T11:57:46.487Z,100945.94
2019-02-27T12:00:26.461Z,100938.67
2019-02-27T12:02:52.855Z,100934.48
2019-02-27T12:05:19.122Z,100941.12
2019-02-27T12:07:45.271Z,100936.36
2019-02-27T12:10:28.048Z,100928.76
2019-02-27T12:12:59.562Z,100920.27
2019-02-27T12:15:22.670Z,100921.13
2019-02-27T12:17:48.831Z,100915.79
2019-02-27T12:20:18.878Z,100908.41
2019-02-27T12:22:45.076Z,100905.80
2019-02-27T12:25:16.284Z,100904.42
2019-02-27T12:27:49.229Z,100904.87
2019-02-27T12:30:14.816Z,100902.92
2019-02-27T12:32:41.119Z,100896.86
2019-02-27T12:35:19.536Z,100893.79
2019-02-27T12:37:45.815Z,100886.21
2019-02-27T12:40:17.849Z,100884.37
2019-02-27T12:42:44.042Z,100878.89
2019-02-27T12:45:16.400Z,100871.73
2019-02-27T12:47:42.594Z,100866.86
2019-02-27T12:50:12.890Z,100861.63
2019-02-27T12:52:39.056Z,100860.22
2019-02-27T12:55:06.106Z,100866.44
2019-02-27T12:57:32.272Z,100865.90
2019-02-27T12:59:58.472Z,100858.66
2019-02-27T13:02:35.269Z,100852.68
2019-02-27T13:04:53.244Z,100852.48
2019-02-27T13:07:19.624Z,100849.48
2019-02-27T13:09:45.770Z,100838.59
2019-02-27T13:12:11.950Z,100839.72
2019-02-27T13:14:38.115Z,100843.97
2019-02-27T13:17:04.481Z,100844.09
2019-02-27T13:19:30.635Z,100839.22
2019-02-27T13:21:56.781Z,100841.72
2019-02-27T13:24:22.952Z,100827.95
2019-02-27T13:26:49.174Z,100824.53
2019-02-27T13:29:15.351Z,100818.12
2019-02-27T13:31:41.615Z,100818.24
2019-02-27T13:34:07.707Z,100818.59
2019-02-27T13:36:34.687Z,100816.27
2019-02-27T13:39:00.927Z,100817.58
2019-02-27T13:41:27.077Z,100811.08
2019-02-27T13:43:53.256Z,100807.31
2019-02-27T13:46:20.177Z,100800.61
2019-02-27T13:48:47.498Z,100794.39
2019-02-27T13:51:14.045Z,100786.98
2019-02-27T13:53:40.176Z,100785.72
2019-02-27T13:56:06.600Z,100784.54
2019-02-27T13:58:35.678Z,100779.34
2019-02-27T14:01:00.828Z,100776.15
2019-02-27T14:03:26.982Z,100763.95
2019-02-27T14:05:53.460Z,100756.70
2019-02-27T14:08:19.559Z,100749.17
2019-02-27T14:10:46.535Z,100739.23
2019-02-27T14:13:12.917Z,100729.24
2019-02-27T14:15:39.057Z,100729.51
2019-02-27T14:18:05.521Z,100718.55
2019-02-27T14:20:31.709Z,100714.69
2019-02-27T14:22:57.856Z,100710.47
2019-02-27T14:25:32.902Z,100710.27
2019-02-27T14:27:58.246Z,100701.89
2019-02-27T14:30:36.589Z,100695.17
2019-02-27T14:33:03.082Z,100686.27
2019-02-27T14:35:29.220Z,100677.52
2019-02-27T14:37:55.380Z,100674.81
2019-02-27T14:40:21.530Z,100677.44
2019-02-27T14:42:48.235Z,100674.90
2019-02-27T14:45:23.771Z,100673.50
2019-02-27T14:47:50.285Z,100666.86
2019-02-27T14:50:19.149Z,100671.02
2019-02-27T14:52:45.790Z,100673.89
2019-02-27T14:55:14.235Z,100669.00
2019-02-27T14:57:40.588Z,100666.66
2019-02-27T15:00:30.941Z,100663.64
2019-02-27T15:02:57.297Z,100663.94
2019-02-27T15:05:23.501Z,100662.95
2019-02-27T15:07:49.784Z,100655.72
2019-02-27T15:10:20.604Z,100656.23
2019-02-27T15:12:46.826Z,100657.77
2019-02-27T15:15:20.310Z,100655.20
2019-02-27T15:17:46.459Z,100647.61
2019-02-27T15:20:15.655Z,100643.34
2019-02-27T15:22:41.792Z,100641.98
2019-02-27T15:25:14.141Z,100636.02
2019-02-27T15:27:40.523Z,100625.77
2019-02-27T15:30:13.132Z,100619.03
2019-02-27T15:32:39.534Z,100615.28
2019-02-27T15:35:09.050Z,100613.03
2019-02-27T15:37:37.354Z,100614.83
2019-02-27T15:40:08.382Z,100608.56
2019-02-27T15:42:34.556Z,100604.68
2019-02-27T15:45:00.703Z,100606.91
2019-02-27T15:47:27.067Z,100597.95
2019-02-27T15:49:55.002Z,100592.34
2019-02-27T15:52:21.180Z,100591.91
2019-02-27T15:54:47.343Z,100584.61
2019-02-27T15:57:17.322Z,100576.33
2019-02-27T15:59:41.924Z,100570.09
2019-02-27T16:02:08.257Z,100567.53
2019-02-27T16:04:34.411Z,100568.63
2019-02-27T16:07:00.610Z,100562.98
2019-02-27T16:09:29.108Z,100559.20
2019-02-27T16:11:54.808Z,100555.97
2019-02-27T16:14:20.943Z,100557.38
2019-02-27T16:16:47.651Z,100560.67
2019-02-27T16:19:13.853Z,100557.41
2019-02-27T16:21:40.046Z,100552.83
2019-02-27T16:24:06.174Z,100558.77
2019-02-27T16:26:32.714Z,100550.31
2019-02-27T16:28:58.859Z,100549.56
2019-02-27T16:31:25.054Z,100550.11
2019-02-27T16:33:51.197Z,100548.52
2019-02-27T16:36:23.670Z,100546.92
2019-02-27T16:38:49.815Z,100543.67
2019-02-27T16:41:16.423Z,100539.90
2019-02-27T16:43:47.670Z,100534.46
2019-02-27T16:46:11.001Z,100531.51
2019-02-27T16:48:37.152Z,100537.25
2019-02-27T16:51:03.325Z,100539.63
2019-02-27T16:53:29.488Z,100537.53
2019-02-27T16:55:55.650Z,100537.09
2019-02-27T16:58:22.112Z,100536.16
2019-02-27T17:00:48.255Z,100533.55
2019-02-27T17:03:14.430Z,100529.61
2019-02-27T17:05:43.109Z,100533.45
2019-02-27T17:08:09.169Z,100538.34
2019-02-27T17:10:36.610Z,100530.54
2019-02-27T17:13:03.612Z,100524.05
2019-02-27T17:15:34.672Z,100519.06
2019-02-27T17:17:57.958Z,100515.09
2019-02-27T17:20:25.697Z,100511.56
2019-02-27T17:22:52.401Z,100512.24
2019-02-27T17:25:18.632Z,100516.25
2019-02-27T17:27:49.961Z,100514.91
2019-02-27T17:30:25.525Z,100511.70
2019-02-27T17:32:51.721Z,100507.81
2019-02-27T17:35:20.544Z,100503.78
2019-02-27T17:37:46.066Z,100507.06
2019-02-27T17:40:17.702Z,100504.02
2019-02-27T17:42:44.378Z,100503.81
2019-02-27T17:45:17.934Z,100503.76
2019-02-27T17:47:44.131Z,100510.52
2019-02-27T17:50:12.785Z,100508.74
2019-02-27T17:52:39.095Z,100508.70
2019-02-27T17:55:13.005Z,100507.45
2019-02-27T17:57:39.297Z,100506.71
2019-02-27T18:00:28.377Z,100496.82
2019-02-27T18:02:54.564Z,100497.52
2019-02-27T18:05:22.311Z,100493.12
2019-02-27T18:07:48.815Z,100486.16
2019-02-27T18:10:14.959Z,100483.09
2019-02-27T18:12:41.138Z,100484.00
2019-02-27T18:15:20.361Z,100485.43
2019-02-27T18:17:47.617Z,100480.02
2019-02-27T18:20:13.855Z,100481.31
2019-02-27T18:22:40.067Z,100477.58
2019-02-27T18:25:13.162Z,100471.71
2019-02-27T18:27:39.422Z,100468.95
2019-02-27T18:30:15.484Z,100470.84
2019-02-27T18:32:41.024Z,100460.58
2019-02-27T18:35:07.368Z,100454.49
2019-02-27T18:37:34.431Z,100450.16
2019-02-27T18:40:00.671Z,100447.20
2019-02-27T18:42:27.195Z,100439.91
2019-02-27T18:44:53.392Z,100435.97
2019-02-27T18:47:19.553Z,100435.55
2019-02-27T18:49:45.743Z,100440.09
2019-02-27T18:52:21.042Z,100439.14
2019-02-27T18:54:40.184Z,100436.55
2019-02-27T18:57:06.361Z,100429.45
2019-02-27T18:59:32.873Z,100424.56
2019-02-27T19:01:59.057Z,100422.67
2019-02-27T19:04:25.212Z,100418.05
2019-02-27T19:06:51.516Z,100414.63
2019-02-27T19:09:17.656Z,100412.23
2019-02-27T19:11:43.830Z,100409.68
2019-02-27T19:14:09.969Z,100405.30
2019-02-27T19:16:36.139Z,100406.92
2019-02-27T19:19:02.395Z,100395.44
2019-02-27T19:21:32.752Z,100393.21
2019-02-27T19:23:56.734Z,100389.83
2019-02-27T19:26:22.907Z,100392.23
2019-02-27T19:28:49.552Z,100390.66
2019-02-27T19:31:16.765Z,100386.57
2019-02-27T19:33:43.490Z,100384.30
2019-02-27T19:36:18.704Z,100386.09
2019-02-27T19:38:37.722Z,100386.09
2019-02-27T19:41:04.737Z,100378.88
2019-02-27T19:43:31.057Z,100375.89
2019-02-27T19:45:57.201Z,100371.67
2019-02-27T19:48:23.374Z,100368.34
2019-02-27T19:50:49.515Z,100368.02
2019-02-27T19:53:15.709Z,100371.34
2019-02-27T19:55:41.914Z,100362.43
2019-02-27T19:58:08.115Z,100362.67
2019-02-27T20:00:35.560Z,100356.73
2019-02-27T20:03:02.428Z,100355.81
2019-02-27T20:05:28.889Z,100347.78
2019-02-27T20:07:55.427Z,100343.09
2019-02-27T20:10:21.605Z,100335.89
2019-02-27T20:12:52.776Z,100331.05
2019-02-27T20:15:18.836Z,100332.66
2019-02-27T20:17:44.996Z,100325.61
2019-02-27T20:20:13.739Z,100319.11
2019-02-27T20:22:39.911Z,100311.41
2019-02-27T20:25:13.038Z,100303.58
2019-02-27T20:27:39.433Z,100306.62
2019-02-27T20:30:14.118Z,100295.33
2019-02-27T20:32:42.259Z,100292.22
2019-02-27T20:35:10.848Z,100287.94
2019-02-27T20:37:40.221Z,100282.70
2019-02-27T20:40:10.740Z,100276.41
2019-02-27T20:42:41.674Z,100270.48
2019-02-27T20:45:21.010Z,100271.97
2019-02-27T20:47:47.280Z,100271.86
2019-02-27T20:50:34.433Z,100266.74
2019-02-27T20:52:52.648Z,100265.27
2019-02-27T20:55:18.839Z,100258.13
2019-02-27T20:57:45.146Z,100250.70
2019-02-27T21:00:14.451Z,100251.45
2019-02-27T21:02:40.686Z,100242.92
2019-02-27T21:05:10.854Z,100239.59
2019-02-27T21:07:41.902Z,100234.61
2019-02-27T21:10:19.980Z,100223.45
2019-02-27T21:12:53.551Z,100221.70
2019-02-27T21:15:13.294Z,100214.54
2019-02-27T21:17:39.697Z,100206.39
2019-02-27T21:20:11.912Z,100209.59
2019-02-27T21:22:37.984Z,100197.47
2019-02-27T21:25:12.065Z,100194.73
2019-02-27T21:27:39.028Z,100191.87
2019-02-27T21:30:20.837Z,100178.61
2019-02-27T21:32:47.102Z,100176.57
2019-02-27T21:35:13.341Z,100173.23
2019-02-27T21:37:44.633Z,100173.16
2019-02-27T21:40:10.954Z,100168.66
2019-02-27T21:42:37.134Z,100176.52
2019-02-27T21:45:11.686Z,100175.80
2019-02-27T21:47:37.887Z,100179.20
2019-02-27T21:50:11.761Z,100169.59
2019-02-27T21:52:37.921Z,100169.52
2019-02-27T21:55:05.229Z,100167.77
2019-02-27T21:57:31.382Z,100167.38
2019-02-27T21:59:58.155Z,100163.09
2019-02-27T22:02:27.243Z,100157.28
2019-02-27T22:04:52.378Z,100150.94
2019-02-27T22:07:18.509Z,100147.28
2019-02-27T22:09:45.443Z,100149.14
2019-02-27T22:12:11.777Z,100147.31
2019-02-27T22:14:37.956Z,100151.97
2019-02-27T22:17:05.039Z,100147.03
2019-02-27T22:19:32.072Z,100148.22
2019-02-27T22:21:58.211Z,100142.42
2019-02-27T22:24:24.385Z,100140.70
2019-02-27T22:26:50.524Z,100134.63
2019-02-27T22:29:16.683Z,100134.11
2019-02-27T22:31:42.874Z,100140.84
2019-02-27T22:34:09.042Z,100131.47
2019-02-27T22:36:35.192Z,100129.42
2019-02-27T22:39:02.838Z,100123.80
2019-02-27T22:41:28.971Z,100116.02
2019-02-27T22:43:55.749Z,100111.03
2019-02-27T22:46:22.553Z,100103.19
2019-02-27T22:48:48.722Z,100096.03
2019-02-27T22:51:14.878Z,100092.59
2019-02-27T22:53:41.053Z,100088.89
2019-02-27T22:56:07.212Z,100079.30
2019-02-27T22:58:33.384Z,100079.55
2019-02-27T23:01:09.362Z,100075.46
2019-02-27T23:03:43.210Z,100069.52
2019-02-27T23:06:12.110Z,100066.58
2019-02-27T23:08:37.830Z,100066.55
2019-02-27T23:11:04.467Z,100056.96
2019-02-27T23:13:30.643Z,100053.92
2019-02-27T23:15:58.866Z,100053.20
2019-02-27T23:18:24.920Z,100041.38
2019-02-27T23:20:52.484Z,100041.73
2019-02-27T23:23:19.257Z,100034.36
2019-02-27T23:25:46.499Z,100038.83
2019-02-27T23:28:13.332Z,100034.73
2019-02-27T23:30:39.537Z,100037.95
2019-02-27T23:33:05.675Z,100031.07
2019-02-27T23:35:31.830Z,100039.20
2019-02-27T23:38:02.802Z,100028.05
2019-02-27T23:40:26.043Z,100032.85
2019-02-27T23:43:12.094Z,100026.66
2019-02-27T23:45:38.260Z,100026.45
2019-02-27T23:48:04.414Z,100021.80
2019-02-27T23:50:30.599Z,100012.72
2019-02-27T23:52:56.733Z,100006.89
2019-02-27T23:55:22.881Z,100003.91
2019-02-27T23:57:49.038Z,100000.78
